createdAt,value
2022-10-24T00:00:19.398Z,90.00
2022-10-24T00:02:50.265Z,90.40
2022-10-24T00:05:23.269Z,90.50
2022-10-24T00:07:54.607Z,90.90
2022-10-24T00:10:24.885Z,91.10
2022-10-24T00:12:57.102Z,91.20
2022-10-24T00:15:27.360Z,91.30
2022-10-24T00:17:58.009Z,90.50
2022-10-24T00:20:28.180Z,90.70
2022-10-24T00:22:58.805Z,90.90
2022-10-24T00:25:33.135Z,91.00
2022-10-24T00:28:03.466Z,90.40
2022-10-24T00:30:33.631Z,91.00
2022-10-24T00:33:04.099Z,91.40
2022-10-24T00:35:34.402Z,92.10
2022-10-24T00:38:04.705Z,92.20
2022-10-24T00:40:35.391Z,92.70
2022-10-24T00:43:05.748Z,92.60
2022-10-24T00:45:52.476Z,92.50
2022-10-24T00:48:48.258Z,93.60
2022-10-24T00:51:35.541Z,93.50
2022-10-24T00:54:10.657Z,94.40
2022-10-24T00:56:57.843Z,94.40
2022-10-24T00:59:30.185Z,94.50
2022-10-24T01:02:02.350Z,95.20
2022-10-24T01:04:32.698Z,95.10
2022-10-24T01:07:24.428Z,94.90
2022-10-24T01:13:09.201Z,94.20
2022-10-24T01:15:58.014Z,95.00
2022-10-24T01:18:50.699Z,94.70
2022-10-24T01:21:30.287Z,94.40
2022-10-24T01:24:09.729Z,95.00
2022-10-24T01:27:01.652Z,95.10
2022-10-24T01:29:59.104Z,94.10
2022-10-24T01:32:59.125Z,94.60
2022-10-24T01:35:50.715Z,94.30
2022-10-24T01:38:36.145Z,93.70
2022-10-24T01:41:24.667Z,94.30
2022-10-24T01:44:28.087Z,94.00
2022-10-24T01:47:04.542Z,93.40
2022-10-24T01:49:40.150Z,93.30
2022-10-24T01:52:15.262Z,93.10
2022-10-24T01:54:47.492Z,93.10
2022-10-24T01:57:19.421Z,93.30
2022-10-24T01:59:51.443Z,92.80
2022-10-24T02:02:32.824Z,92.20
2022-10-24T02:05:11.884Z,92.50
2022-10-24T02:07:48.284Z,92.30
2022-10-24T02:10:32.063Z,92.00
2022-10-24T02:13:12.999Z,92.50
2022-10-24T02:15:55.372Z,91.70
2022-10-24T02:18:25.886Z,92.30
2022-10-24T02:21:01.938Z,90.50
2022-10-24T02:23:54.215Z,90.50
2022-10-24T02:26:37.756Z,90.50
2022-10-24T02:29:17.879Z,90.90
2022-10-24T02:32:02.081Z,90.20
2022-10-24T02:34:35.989Z,90.30
2022-10-24T02:37:08.685Z,90.00
2022-10-24T02:39:41.785Z,90.50
2022-10-24T02:42:12.735Z,90.80
2022-10-24T02:44:44.435Z,90.40
2022-10-24T02:47:16.932Z,90.40
2022-10-24T02:49:47.174Z,90.30
2022-10-24T02:52:17.766Z,90.70
2022-10-24T02:54:48.103Z,91.10
2022-10-24T02:57:18.490Z,91.00
2022-10-24T02:59:48.749Z,90.50
2022-10-24T03:02:19.719Z,90.70
2022-10-24T03:04:49.959Z,90.30
2022-10-24T03:07:20.763Z,91.10
2022-10-24T03:09:51.098Z,91.00
2022-10-24T03:12:21.447Z,91.60
2022-10-24T03:14:51.820Z,91.60
2022-10-24T03:17:23.541Z,91.50
2022-10-24T03:19:53.843Z,90.70
2022-10-24T03:22:28.644Z,90.90
2022-10-24T03:25:04.611Z,91.00
2022-10-24T03:27:36.168Z,90.50
2022-10-24T03:30:07.648Z,90.90
2022-10-24T03:33:07.409Z,90.80
2022-10-24T03:35:39.315Z,91.00
2022-10-24T03:38:10.466Z,90.50
2022-10-24T03:40:43.169Z,90.50
2022-10-24T03:43:13.743Z,91.00
2022-10-24T03:45:44.305Z,88.50
2022-10-24T03:48:15.242Z,88.90
2022-10-24T03:50:45.912Z,88.20
2022-10-24T03:53:16.719Z,87.40
2022-10-24T03:55:46.900Z,86.90
2022-10-24T03:58:17.298Z,87.50
2022-10-24T04:00:47.656Z,87.10
2022-10-24T04:03:18.131Z,86.40
2022-10-24T04:05:48.421Z,87.60
2022-10-24T04:08:23.871Z,87.30
2022-10-24T04:10:56.122Z,86.80
2022-10-24T04:13:27.616Z,87.40
2022-10-24T04:15:59.121Z,87.90
2022-10-24T04:18:31.006Z,85.80
2022-10-24T04:21:01.742Z,86.90
2022-10-24T04:23:36.194Z,88.90
2022-10-24T04:26:06.968Z,88.50
2022-10-24T04:28:37.465Z,88.90
2022-10-24T04:31:08.847Z,88.10
2022-10-24T04:33:41.616Z,87.60
2022-10-24T04:36:12.818Z,87.10
2022-10-24T04:38:43.158Z,87.60
2022-10-24T04:41:13.456Z,87.50
2022-10-24T04:43:44.054Z,87.60
2022-10-24T04:46:14.726Z,87.30
2022-10-24T04:48:44.963Z,87.50
2022-10-24T04:51:18.579Z,88.00
2022-10-24T04:53:52.825Z,87.20
2022-10-24T04:56:23.879Z,87.30
2022-10-24T04:58:54.628Z,88.90
2022-10-24T05:01:25.412Z,88.40
2022-10-24T05:03:55.744Z,87.80
2022-10-24T05:06:26.036Z,88.10
2022-10-24T05:08:56.501Z,87.60
2022-10-24T05:11:27.137Z,87.00
2022-10-24T05:13:57.559Z,88.20
2022-10-24T05:16:27.708Z,85.80
2022-10-24T05:18:58.002Z,86.90
2022-10-24T05:21:28.227Z,85.90
2022-10-24T05:23:59.004Z,85.70
2022-10-24T05:26:29.257Z,86.00
2022-10-24T05:28:59.559Z,85.90
2022-10-24T05:34:04.644Z,85.30
2022-10-24T05:36:35.352Z,84.80
2022-10-24T05:39:06.270Z,86.30
2022-10-24T05:41:36.479Z,86.60
2022-10-24T05:44:07.382Z,86.90
2022-10-24T05:46:38.082Z,85.60
2022-10-24T05:49:08.757Z,86.70
2022-10-24T05:51:42.074Z,88.30
2022-10-24T05:56:42.970Z,88.20
2022-10-24T05:59:13.933Z,88.30
2022-10-24T06:01:46.266Z,88.70
2022-10-24T06:04:17.646Z,90.00
2022-10-24T06:06:48.292Z,90.00
2022-10-24T06:09:18.641Z,90.30
2022-10-24T06:11:49.335Z,90.00
2022-10-24T06:14:20.418Z,90.40
2022-10-24T06:16:52.445Z,90.60
2022-10-24T06:19:23.617Z,90.30
2022-10-24T06:21:54.334Z,90.80
2022-10-24T06:24:24.924Z,90.40
2022-10-24T06:27:00.017Z,91.10
2022-10-24T06:29:30.874Z,91.20
2022-10-24T06:32:01.757Z,91.40
2022-10-24T06:34:33.658Z,91.30
2022-10-24T06:37:05.870Z,91.10
2022-10-24T06:39:36.736Z,91.20
2022-10-24T06:42:07.731Z,91.40
2022-10-24T06:44:38.359Z,91.30
2022-10-24T06:47:09.160Z,91.50
2022-10-24T06:49:39.888Z,91.50
2022-10-24T06:52:10.458Z,91.80
2022-10-24T06:54:41.567Z,91.70
2022-10-24T06:57:11.730Z,91.90
2022-10-24T06:59:42.825Z,91.70
2022-10-24T07:02:17.829Z,91.80
2022-10-24T07:04:49.591Z,91.70
2022-10-24T07:07:23.142Z,92.00
2022-10-24T07:09:58.892Z,92.30
2022-10-24T07:12:30.685Z,92.30
2022-10-24T07:15:02.559Z,92.20
2022-10-24T07:17:33.903Z,92.50
2022-10-24T07:20:05.511Z,92.80
2022-10-24T07:22:36.518Z,93.40
2022-10-24T07:25:09.575Z,93.40
2022-10-24T07:27:40.143Z,93.60
2022-10-24T07:30:12.460Z,93.50
2022-10-24T07:32:43.554Z,93.70
2022-10-24T07:35:17.496Z,94.10
2022-10-24T07:37:48.613Z,94.30
2022-10-24T07:40:20.049Z,94.30
2022-10-24T07:42:50.872Z,94.70
2022-10-24T07:45:21.611Z,94.90
2022-10-24T07:47:52.283Z,94.90
2022-10-24T07:50:23.303Z,95.10
2022-10-24T07:52:53.977Z,95.60
2022-10-24T07:55:25.228Z,95.90
2022-10-24T07:57:56.157Z,96.00
2022-10-24T08:00:28.383Z,96.10
2022-10-24T08:02:59.201Z,96.40
2022-10-24T08:05:30.136Z,96.70
2022-10-24T08:08:24.733Z,97.10
2022-10-24T08:10:51.724Z,97.30
2022-10-24T08:13:22.677Z,97.40
2022-10-24T08:15:55.323Z,97.50
2022-10-24T08:18:30.112Z,97.80
2022-10-24T08:21:03.258Z,98.00
2022-10-24T08:23:35.901Z,98.10
2022-10-24T08:26:13.338Z,98.20
2022-10-24T08:28:44.911Z,98.40
2022-10-24T08:31:20.821Z,98.50
2022-10-24T08:33:54.108Z,99.00
2022-10-24T08:36:32.867Z,98.60
2022-10-24T08:39:03.340Z,98.40
2022-10-24T08:41:37.050Z,98.70
2022-10-24T08:44:36.353Z,99.00
2022-10-24T08:47:29.545Z,99.10
2022-10-24T08:50:26.011Z,99.60
2022-10-24T08:53:17.542Z,99.40
2022-10-24T08:55:59.107Z,99.40
2022-10-24T08:58:31.363Z,99.60
2022-10-24T09:01:04.918Z,99.70
2022-10-24T09:03:55.052Z,99.60
2022-10-24T09:06:29.580Z,99.70
2022-10-24T09:09:35.188Z,99.80
2022-10-24T09:12:07.101Z,99.80
2022-10-24T09:14:41.454Z,99.80
2022-10-24T09:17:34.425Z,99.70
2022-10-24T09:20:24.545Z,99.80
2022-10-24T09:22:57.895Z,99.90
2022-10-24T09:25:36.182Z,99.90
2022-10-24T09:28:08.908Z,99.90
2022-10-24T09:30:39.892Z,99.90
2022-10-24T09:33:34.116Z,99.90
2022-10-24T09:36:07.884Z,99.90
2022-10-24T09:38:40.305Z,99.90
2022-10-24T09:41:22.832Z,99.90
2022-10-24T09:43:56.348Z,99.90
2022-10-24T09:46:52.790Z,99.90
2022-10-24T09:49:27.464Z,99.90
2022-10-24T09:52:10.478Z,99.90
2022-10-24T09:54:41.058Z,99.90
2022-10-24T09:59:52.774Z,99.90
2022-10-24T10:02:30.420Z,99.90
2022-10-24T10:05:06.894Z,99.90
2022-10-24T10:07:40.341Z,99.90
2022-10-24T10:10:11.661Z,99.90
2022-10-24T10:12:46.796Z,99.90
2022-10-24T10:15:29.040Z,99.90
2022-10-24T10:18:05.518Z,99.90
2022-10-24T10:20:43.633Z,99.90
2022-10-24T10:23:29.289Z,99.90
2022-10-24T10:26:27.430Z,99.90
2022-10-24T10:29:02.902Z,99.90
2022-10-24T10:31:49.534Z,99.90
2022-10-24T10:34:41.549Z,99.90
2022-10-24T10:37:24.626Z,99.90
2022-10-24T10:40:24.661Z,99.90
2022-10-24T10:43:05.018Z,99.90
2022-10-24T10:46:04.961Z,99.90
2022-10-24T10:48:53.145Z,99.90
2022-10-24T10:51:26.823Z,99.90
2022-10-24T10:54:06.262Z,99.90
2022-10-24T10:56:48.582Z,99.90
2022-10-24T10:59:33.902Z,99.90
2022-10-24T11:02:25.272Z,99.90
2022-10-24T11:05:23.352Z,99.90
2022-10-24T11:08:19.280Z,99.90
2022-10-24T11:11:07.885Z,99.90
2022-10-24T11:13:45.595Z,99.90
2022-10-24T11:16:28.191Z,99.90
2022-10-24T11:19:11.341Z,99.90
2022-10-24T11:21:45.587Z,99.90
2022-10-24T11:24:21.051Z,99.90
2022-10-24T11:27:09.794Z,99.90
2022-10-24T11:29:59.623Z,99.90
2022-10-24T11:32:59.517Z,99.90
2022-10-24T11:35:35.853Z,99.90
2022-10-24T11:38:35.099Z,99.90
2022-10-24T11:41:46.457Z,99.90
2022-10-24T11:44:42.214Z,99.90
2022-10-24T11:47:28.067Z,99.90
2022-10-24T11:50:25.630Z,99.90
2022-10-24T11:53:08.054Z,99.90
2022-10-24T11:55:43.451Z,99.90
2022-10-24T11:58:22.883Z,99.90
2022-10-24T12:01:31.309Z,99.90
2022-10-24T12:04:26.166Z,99.90
2022-10-24T12:07:38.093Z,99.90
2022-10-24T12:10:25.316Z,99.90
2022-10-24T12:13:21.165Z,99.90
2022-10-24T12:16:31.201Z,99.90
2022-10-24T12:19:24.443Z,99.90
2022-10-24T12:22:00.516Z,99.90
2022-10-24T12:24:40.599Z,99.90
2022-10-24T12:27:32.289Z,99.90
2022-10-24T12:30:31.850Z,99.90
2022-10-24T12:33:13.718Z,99.90
2022-10-24T12:35:46.805Z,99.90
2022-10-24T12:38:26.331Z,99.90
2022-10-24T12:41:15.602Z,99.90
2022-10-24T12:43:52.502Z,99.90
2022-10-24T12:46:42.427Z,99.90
2022-10-24T12:49:13.085Z,99.90
2022-10-24T12:51:43.975Z,99.90
2022-10-24T12:54:21.437Z,99.90
2022-10-24T12:56:55.037Z,99.90
2022-10-24T12:59:35.417Z,99.90
2022-10-24T13:02:51.487Z,99.90
2022-10-24T13:05:46.467Z,99.90
2022-10-24T13:08:29.611Z,99.90
2022-10-24T13:11:33.486Z,99.90
2022-10-24T13:14:10.927Z,99.90
2022-10-24T13:17:00.675Z,99.90
2022-10-24T13:19:33.278Z,99.90
2022-10-24T13:22:04.368Z,99.90
2022-10-24T13:24:42.313Z,99.90
2022-10-24T13:27:16.198Z,99.90
2022-10-24T13:29:46.419Z,99.90
2022-10-24T13:32:19.935Z,99.90
2022-10-24T13:34:54.595Z,99.90
2022-10-24T13:37:48.924Z,99.90
2022-10-24T13:40:31.747Z,99.90
2022-10-24T13:43:07.843Z,99.90
2022-10-24T13:45:45.279Z,99.90
2022-10-24T13:48:22.950Z,99.90
2022-10-24T13:51:11.676Z,99.90
2022-10-24T13:54:05.733Z,99.90
2022-10-24T13:56:42.333Z,99.90
2022-10-24T13:59:33.082Z,99.90
2022-10-24T14:02:20.716Z,99.90
2022-10-24T14:04:56.102Z,99.90
2022-10-24T14:07:35.749Z,99.90
2022-10-24T14:10:14.632Z,99.90
2022-10-24T14:12:48.190Z,99.90
2022-10-24T14:15:24.944Z,99.90
2022-10-24T14:18:02.343Z,99.90
2022-10-24T14:20:35.191Z,99.90
2022-10-24T14:23:18.324Z,99.90
2022-10-24T14:25:55.292Z,99.90
2022-10-24T14:28:31.631Z,99.90
2022-10-24T14:31:05.390Z,99.90
2022-10-24T14:33:46.767Z,99.90
2022-10-24T14:36:17.723Z,99.90
2022-10-24T14:38:48.665Z,99.90
2022-10-24T14:41:20.651Z,99.90
2022-10-24T14:43:50.947Z,99.90
2022-10-24T14:46:29.671Z,99.90
2022-10-24T14:49:03.357Z,99.90
2022-10-24T14:51:40.216Z,99.90
2022-10-24T14:54:23.400Z,99.90
2022-10-24T14:56:56.234Z,99.90
2022-10-24T14:59:39.310Z,99.90
2022-10-24T15:02:37.556Z,99.90
2022-10-24T15:05:25.556Z,99.90
2022-10-24T15:08:22.815Z,99.90
2022-10-24T15:11:27.400Z,99.90
2022-10-24T15:14:06.781Z,99.90
2022-10-24T15:16:40.865Z,99.90
2022-10-24T15:19:19.839Z,99.90
2022-10-24T15:21:50.343Z,99.90
2022-10-24T15:24:27.370Z,99.90
2022-10-24T15:27:15.401Z,99.90
2022-10-24T15:29:45.846Z,99.90
2022-10-24T15:32:16.055Z,99.90
2022-10-24T15:34:46.486Z,99.90
2022-10-24T15:37:22.036Z,99.90
2022-10-24T15:39:55.769Z,99.90
2022-10-24T15:42:26.600Z,99.90
2022-10-24T15:44:57.185Z,99.90
2022-10-24T15:47:27.625Z,99.90
2022-10-24T15:49:57.822Z,99.90
2022-10-24T15:52:28.084Z,99.90
2022-10-24T15:54:58.274Z,99.90
2022-10-24T15:57:28.518Z,99.90
2022-10-24T15:59:59.485Z,99.90
2022-10-24T16:02:29.694Z,99.90
2022-10-24T16:05:01.154Z,99.90
2022-10-24T16:07:31.377Z,99.90
2022-10-24T16:10:01.620Z,99.90
2022-10-24T16:12:32.080Z,99.90
2022-10-24T16:15:02.238Z,99.90
2022-10-24T16:17:32.479Z,99.90
2022-10-24T16:20:02.661Z,99.90
2022-10-24T16:22:32.893Z,99.90
2022-10-24T16:25:03.079Z,99.90
2022-10-24T16:27:33.279Z,99.90
2022-10-24T16:30:03.517Z,99.90
2022-10-24T16:32:33.726Z,99.90
2022-10-24T16:35:04.417Z,99.90
2022-10-24T16:37:35.999Z,99.90
2022-10-24T16:40:07.138Z,99.90
2022-10-24T16:42:40.709Z,99.90
2022-10-24T16:45:11.419Z,99.90
2022-10-24T16:47:41.664Z,99.90
2022-10-24T16:50:16.795Z,99.90
2022-10-24T16:52:47.446Z,99.90
2022-10-24T16:55:18.311Z,99.90
2022-10-24T16:57:49.116Z,99.90
2022-10-24T17:00:22.756Z,99.90
2022-10-24T17:02:55.655Z,99.90
2022-10-24T17:05:28.413Z,99.90
2022-10-24T17:07:59.303Z,99.90
2022-10-24T17:10:30.829Z,99.90
2022-10-24T17:13:02.663Z,99.90
2022-10-24T17:15:32.907Z,99.90
2022-10-24T17:18:03.156Z,99.90
2022-10-24T17:20:33.332Z,99.90
2022-10-24T17:23:05.764Z,99.90
2022-10-24T17:25:37.354Z,99.90
2022-10-24T17:28:08.395Z,99.90
2022-10-24T17:30:38.745Z,99.90
2022-10-24T17:33:09.141Z,99.90
2022-10-24T17:35:42.761Z,99.90
2022-10-24T17:38:17.126Z,99.90
2022-10-24T17:40:50.907Z,99.90
2022-10-24T17:43:26.064Z,99.90
2022-10-24T17:46:00.031Z,99.90
2022-10-24T17:48:30.650Z,99.90
2022-10-24T17:51:04.398Z,99.90
2022-10-24T17:53:34.513Z,99.90
2022-10-24T17:56:04.985Z,99.90
2022-10-24T17:58:35.507Z,99.90
2022-10-24T18:01:05.830Z,99.90
2022-10-24T18:03:36.454Z,99.90
2022-10-24T18:06:08.950Z,99.90
2022-10-24T18:08:39.087Z,99.90
2022-10-24T18:11:14.504Z,99.90
2022-10-24T18:13:44.848Z,99.90
2022-10-24T18:16:17.823Z,99.90
2022-10-24T18:18:49.985Z,99.90
2022-10-24T18:21:26.890Z,99.90
2022-10-24T18:23:58.547Z,99.90
2022-10-24T18:26:30.512Z,99.90
2022-10-24T18:29:01.143Z,99.90
2022-10-24T18:31:33.550Z,99.90
2022-10-24T18:34:08.360Z,99.90
2022-10-24T18:36:38.986Z,99.90
2022-10-24T18:39:09.628Z,99.90
2022-10-24T18:41:57.407Z,99.90
2022-10-24T18:44:29.392Z,99.90
2022-10-24T18:47:07.446Z,99.90
2022-10-24T18:49:38.651Z,99.90
2022-10-24T18:52:42.624Z,99.90
2022-10-24T18:55:27.365Z,99.90
2022-10-24T18:57:58.671Z,99.90
2022-10-24T19:00:31.820Z,99.90
2022-10-24T19:03:12.388Z,99.90
2022-10-24T19:05:51.855Z,99.90
2022-10-24T19:08:33.958Z,99.90
2022-10-24T19:11:04.341Z,99.90
2022-10-24T19:13:35.246Z,99.90
2022-10-24T19:16:06.515Z,99.90
2022-10-24T19:18:39.279Z,99.90
2022-10-24T19:21:09.705Z,99.90
2022-10-24T19:23:40.957Z,99.90
2022-10-24T19:26:12.884Z,99.90
2022-10-24T19:28:43.415Z,99.90
2022-10-24T19:31:18.138Z,99.90
2022-10-24T19:33:48.342Z,99.90
2022-10-24T19:36:19.345Z,99.90
2022-10-24T19:38:50.121Z,99.90
2022-10-24T19:41:20.320Z,99.90
2022-10-24T19:43:50.531Z,99.90
2022-10-24T19:46:21.571Z,99.90
2022-10-24T19:48:52.027Z,99.90
2022-10-24T19:51:23.380Z,99.90
2022-10-24T19:53:56.019Z,99.90
2022-10-24T19:56:28.483Z,99.90
2022-10-24T19:58:59.360Z,99.90
2022-10-24T20:01:32.636Z,99.90
2022-10-24T20:04:04.361Z,99.90
2022-10-24T20:06:35.194Z,99.90
2022-10-24T20:09:05.929Z,99.90
2022-10-24T20:11:36.755Z,99.90
2022-10-24T20:14:06.959Z,99.90
2022-10-24T20:16:37.830Z,99.90
2022-10-24T20:19:08.460Z,99.90
2022-10-24T20:21:39.331Z,99.90
2022-10-24T20:24:10.175Z,99.90
2022-10-24T20:26:40.381Z,99.90
2022-10-24T20:29:10.652Z,99.90
2022-10-24T20:31:43.053Z,99.90
2022-10-24T20:34:13.663Z,99.90
2022-10-24T20:36:46.357Z,99.90
2022-10-24T20:39:22.567Z,99.90
2022-10-24T20:41:54.260Z,99.90
2022-10-24T20:44:28.231Z,99.90
2022-10-24T20:47:00.628Z,99.90
2022-10-24T20:49:33.471Z,99.90
2022-10-24T20:52:04.274Z,99.90
2022-10-24T20:54:35.421Z,99.90
2022-10-24T20:57:05.664Z,99.90
2022-10-24T20:59:36.902Z,99.90
2022-10-24T21:02:07.890Z,99.90
2022-10-24T21:04:39.253Z,99.90
2022-10-24T21:07:11.492Z,99.90
2022-10-24T21:09:41.646Z,99.90
2022-10-24T21:12:11.883Z,99.80
2022-10-24T21:14:42.083Z,99.90
2022-10-24T21:17:12.399Z,99.90
2022-10-24T21:19:42.642Z,99.90
2022-10-24T21:22:13.470Z,99.90
2022-10-24T21:24:43.724Z,99.90
2022-10-24T21:27:14.379Z,99.90
2022-10-24T21:29:44.971Z,99.90
2022-10-24T21:32:16.779Z,99.70
2022-10-24T21:34:47.393Z,99.80
2022-10-24T21:37:18.943Z,99.60
2022-10-24T21:39:50.501Z,99.20
2022-10-24T21:42:21.948Z,99.50
2022-10-24T21:44:52.577Z,99.20
2022-10-24T21:47:22.961Z,99.20
2022-10-24T21:49:53.122Z,99.30
2022-10-24T21:52:23.431Z,98.90
2022-10-24T21:54:53.995Z,98.60
2022-10-24T21:57:24.267Z,98.20
2022-10-24T21:59:54.428Z,98.10
2022-10-24T22:02:24.896Z,98.00
2022-10-24T22:04:55.180Z,97.80
2022-10-24T22:09:56.839Z,97.30
2022-10-24T22:12:27.079Z,97.00
2022-10-24T22:14:57.307Z,96.90
2022-10-24T22:17:27.554Z,96.80
2022-10-24T22:19:57.708Z,96.80
2022-10-24T22:22:27.872Z,96.40
2022-10-24T22:24:58.175Z,95.80
2022-10-24T22:27:28.358Z,95.70
2022-10-24T22:29:58.560Z,95.60
2022-10-24T22:32:29.015Z,94.20
2022-10-24T22:34:59.549Z,94.20
2022-10-24T22:37:34.321Z,93.40
2022-10-24T22:40:05.395Z,92.10
2022-10-24T22:42:36.262Z,92.70
2022-10-24T22:45:07.062Z,92.90
2022-10-24T22:48:06.324Z,92.10
2022-10-24T22:50:55.273Z,92.60
2022-10-24T22:53:28.409Z,93.20
2022-10-24T22:56:13.709Z,93.20
2022-10-24T22:58:46.388Z,92.60
2022-10-24T23:01:53.145Z,91.80
2022-10-24T23:04:39.101Z,91.80
2022-10-24T23:07:56.582Z,91.60
2022-10-24T23:10:27.672Z,92.00
2022-10-24T23:12:58.483Z,92.00
2022-10-24T23:15:29.372Z,92.00
2022-10-24T23:17:59.770Z,92.10
2022-10-24T23:20:35.963Z,91.10
2022-10-24T23:23:17.269Z,90.50
2022-10-24T23:26:05.847Z,90.40
2022-10-24T23:28:52.499Z,90.40
2022-10-24T23:31:22.825Z,90.00
2022-10-24T23:33:53.334Z,90.90
2022-10-24T23:36:27.972Z,91.30
2022-10-24T23:39:00.594Z,91.80
2022-10-24T23:41:31.059Z,91.90
2022-10-24T23:44:01.419Z,92.60
2022-10-24T23:46:37.629Z,92.50
2022-10-24T23:49:28.993Z,92.20
2022-10-24T23:52:27.477Z,92.30
2022-10-24T23:54:57.800Z,91.90
2022-10-24T23:57:28.360Z,92.30
2022-10-24T23:59:58.536Z,90.70
